< < Back
Terminal Aerodrome Forecast


Current Version              Previous Versions:   1  2  3  4  5  6  7  8  9  

Terminal Aerodrome Forecast

130
FTUS42 KMLB 252300
TAFMCO
TAF
KMCO 252331Z 2600/2624 34003KT P6SM SKC
     FM261400 36006KT P6SM SKC
     FM261900 02007KT P6SM FEW050=

Latest METAR

871
SAUS70 KWBC 260258
MTRMCO
METAR KMCO 260253Z 36008KT 10SM CLR 19/16 A3001 RMK AO2 SLP161 T01890156
51014 $


USA.gov is the U.S. government's official web portal to all federal, state and local government web resources and services.